Air Navigation Services of Czech Republic
Airport: LKPJ Updated:  20.09.2021 17:00:28  UTC
 METAR LKPJ 20.09. 17:00 ...
METAR LKPJ 201700Z AUTO 30003KT 9999 OVC069/// 12/07 Q1020=